METAR AND TAF INFORMATION
METAR FOR LFBT
ADDS - METARS form results

(1057 UTC 27 November 2020)
Data provider http://aviationweather.gov/metar/data/
 
METAR text: LFBT 271030Z AUTO 01004KT CAVOK 12/08 Q1013 NOSIG
Conditions at: LFBT (TARBES/OSSUN , FR) observed 1030 UTC 27 November 2020
Temperature: 12.0°C (54°F)
Dewpoint: 8.0°C (46°F) [RH = 76%]
Pressure (altimeter): 29.91 inches Hg (1013.0 mb)
Winds: from the N (10 degrees) at 5 MPH (4 knots; 2.1 m/s)
Visibility: 6 or more miles (10+ km)
Ceiling: ceiling and visibility are OK
Clouds: unknown
Weather: no significant weather observed at this time

METAR text: LFBT 271000Z AUTO VRB02KT 9999 FEW094 OVC140 12/07 Q1013 NOSIG
Conditions at: LFBT (TARBES/OSSUN , FR) observed 1000 UTC 27 November 2020
Temperature: 12.0°C (54°F)
Dewpoint: 7.0°C (45°F) [RH = 71%]
Pressure (altimeter): 29.91 inches Hg (1013.0 mb)
Winds: variable direction winds at 2 MPH (2 knots; 1.0 m/s)
Visibility: 6 or more miles (10+ km)
Ceiling: 14000 feet AGL
Clouds: few clouds at 9400 feet AGL
overcast cloud deck at 14000 feet AGL
Weather: no significant weather observed at this time

Forecast for: LFBT (TARBES/OSSUN , FR)
Text: TAF LFBT 270500Z 2706/2806 VRB03KT CAVOK
Forecast period: 0600 to 1900 UTC 27 November 2020
Forecast type: FROM: standard forecast or significant change
Winds: variable direction winds at 3 MPH (3 knots; 1.5 m/s)
Visibility: 6 or more miles (10+ km)
Ceiling: unknown
Clouds: missing
Weather: NSW  (no significant weather)
Text: BECMG 2719/2721 0500 FG VV///
Forecast period: 1900 UTC 27 November 2020 to 0600 UTC 28 November 2020
Forecast type: BECOMING: Conditions expected to become as follows by 2100 UTC 27 November 2020
Winds: variable direction winds at 3 MPH (3 knots; 1.5 m/s)
Visibility: 0.31 miles (0.50 km)
Ceiling: unknown
Clouds: missing
Weather: FG  (fog)

 AIRPORT MAP

 RUNWAY INFORMATION
Runway 02 Runway length 9843 ft Runway width 148 ft
Runway elevation 1238 ft Runway displaced threshold 2199 ft Runway heading 20
Runway 20 Runway length 9843 ft Runway width 148 ft
Runway elevation 1170 ft Runway displaced threshold 0 ft Runway heading 200

 AIRPORT FREQUENCIES
Type APP Name APP Frequency 120.3 MHZ
Type APP Name PYRENEES A Frequency 121.175 MHZ
Type ATIS Name ATIS Frequency 125.95 MHZ
Type GND Name GND Frequency 121.8 MHZ
Type TWR Name TWR Frequency 119.05 MHZ

 AIRPORT NEAR NAVIGATION AIDS
Type VOR Name Lahitte Frequency 111800 KHZ
Type VOR Name Tarbes Frequency 113900 KHZ
Type NDB Name Tarbes Frequency 321 KHZ